createdAt,value
2017-08-09T00:01:26.558Z,3.63
2017-08-09T00:03:55.012Z,4.87
2017-08-09T00:06:23.445Z,4.03
2017-08-09T00:08:52.358Z,4.00
2017-08-09T00:11:20.939Z,4.80
2017-08-09T00:13:50.162Z,4.20
2017-08-09T00:16:19.411Z,5.30
2017-08-09T00:18:47.852Z,5.70
2017-08-09T00:21:16.298Z,4.70
2017-08-09T00:23:45.360Z,4.50
2017-08-09T00:26:14.211Z,4.47
2017-08-09T00:28:43.601Z,5.07
2017-08-09T00:31:12.438Z,6.03
2017-08-09T00:33:40.876Z,4.00
2017-08-09T00:36:10.549Z,4.13
2017-08-09T00:38:40.129Z,4.30
2017-08-09T00:41:09.350Z,5.03
2017-08-09T00:43:37.806Z,4.27
2017-08-09T00:46:07.015Z,4.13
2017-08-09T00:48:36.317Z,5.80
2017-08-09T00:51:05.365Z,4.33
2017-08-09T00:53:34.591Z,5.53
2017-08-09T00:56:03.443Z,5.80
2017-08-09T00:58:31.888Z,4.93
2017-08-09T01:01:01.376Z,5.00
2017-08-09T01:03:30.213Z,5.13
2017-08-09T01:06:00.200Z,4.30
2017-08-09T01:08:29.695Z,5.03
2017-08-09T01:11:00.056Z,5.00
2017-08-09T01:13:30.043Z,6.77
2017-08-09T01:15:59.272Z,4.80
2017-08-09T01:18:27.781Z,5.03
2017-08-09T01:20:57.783Z,6.30
2017-08-09T01:23:26.653Z,6.03
2017-08-09T01:25:55.492Z,5.40
2017-08-09T01:28:24.702Z,6.63
2017-08-09T01:30:53.590Z,5.00
2017-08-09T01:33:22.796Z,5.70
2017-08-09T01:35:52.407Z,4.27
2017-08-09T01:38:22.049Z,5.13
2017-08-09T01:40:50.926Z,4.80
2017-08-09T01:43:20.340Z,5.40
2017-08-09T01:45:49.219Z,5.67
2017-08-09T01:48:17.685Z,5.90
2017-08-09T01:50:46.566Z,4.97
2017-08-09T01:53:16.016Z,5.77
2017-08-09T01:55:45.282Z,5.27
2017-08-09T01:58:14.724Z,6.97
2017-08-09T02:00:43.656Z,6.27
2017-08-09T02:03:13.129Z,7.00
2017-08-09T02:05:41.593Z,4.90
2017-08-09T02:08:10.063Z,4.90
2017-08-09T02:10:38.558Z,4.93
2017-08-09T02:13:07.435Z,5.27
2017-08-09T02:15:35.888Z,4.97
2017-08-09T02:18:04.704Z,4.83
2017-08-09T02:20:33.814Z,5.40
2017-08-09T02:23:03.252Z,5.07
2017-08-09T02:25:32.137Z,6.10
2017-08-09T02:28:00.965Z,5.80
2017-08-09T02:30:30.412Z,5.40
2017-08-09T02:32:59.388Z,7.03
2017-08-09T02:35:28.229Z,5.63
2017-08-09T02:37:56.669Z,7.00
2017-08-09T02:40:26.675Z,5.40
2017-08-09T02:42:55.155Z,6.07
2017-08-09T02:45:23.607Z,5.97
2017-08-09T02:47:52.094Z,6.70
2017-08-09T02:50:22.217Z,6.00
2017-08-09T02:52:51.101Z,7.00
2017-08-09T02:55:20.697Z,7.10
2017-08-09T02:57:50.523Z,6.63
2017-08-09T03:00:19.498Z,5.67
2017-08-09T03:02:48.356Z,8.00
2017-08-09T03:05:16.836Z,7.13
2017-08-09T03:07:45.680Z,7.00
2017-08-09T03:10:15.205Z,5.27
2017-08-09T03:12:43.652Z,6.17
2017-08-09T03:15:12.091Z,5.77
2017-08-09T03:17:40.592Z,6.53
2017-08-09T03:20:10.214Z,7.40
2017-08-09T03:22:38.850Z,5.90
2017-08-09T03:25:07.337Z,6.17
2017-08-09T03:27:36.208Z,6.20
2017-08-09T03:30:06.149Z,5.60
2017-08-09T03:32:35.007Z,7.30
2017-08-09T03:35:04.224Z,6.53
2017-08-09T03:37:32.659Z,8.77
2017-08-09T03:40:01.131Z,6.97
2017-08-09T03:42:30.016Z,9.07
2017-08-09T03:44:59.457Z,5.97
2017-08-09T03:47:28.317Z,5.50
2017-08-09T03:49:56.806Z,6.33
2017-08-09T03:52:25.681Z,6.10
2017-08-09T03:54:54.134Z,6.90
2017-08-09T03:57:22.968Z,6.60
2017-08-09T03:59:51.594Z,6.40
2017-08-09T04:02:21.750Z,5.93
2017-08-09T04:04:50.205Z,6.20
2017-08-09T04:07:19.415Z,6.90
2017-08-09T04:09:47.839Z,5.87
2017-08-09T04:12:16.323Z,6.00
2017-08-09T04:14:44.770Z,5.23
2017-08-09T04:17:14.718Z,5.63
2017-08-09T04:19:43.938Z,7.63
2017-08-09T04:22:13.191Z,8.20
2017-08-09T04:24:41.647Z,7.67
2017-08-09T04:27:10.435Z,6.50
2017-08-09T04:29:38.881Z,7.30
2017-08-09T04:32:07.729Z,7.80
2017-08-09T04:34:37.202Z,8.63
2017-08-09T04:37:06.303Z,5.70
2017-08-09T04:39:35.527Z,9.63
2017-08-09T04:42:04.364Z,7.10
2017-08-09T04:44:34.057Z,9.13
2017-08-09T04:47:02.498Z,7.50
2017-08-09T04:49:31.340Z,7.47
2017-08-09T04:52:00.972Z,6.97
2017-08-09T04:54:30.936Z,6.07
2017-08-09T04:56:59.394Z,6.27
2017-08-09T04:59:27.926Z,7.50
2017-08-09T05:01:57.880Z,5.77
2017-08-09T05:04:27.475Z,6.37
2017-08-09T05:06:56.313Z,6.10
2017-08-09T05:09:25.566Z,6.37
2017-08-09T05:11:54.845Z,5.53
2017-08-09T05:14:24.427Z,5.87
2017-08-09T05:16:53.742Z,5.50
2017-08-09T05:19:22.573Z,5.60
2017-08-09T05:21:51.037Z,5.67
2017-08-09T05:24:20.494Z,6.03
2017-08-09T05:26:49.002Z,7.90
2017-08-09T05:29:17.845Z,4.93
2017-08-09T05:31:46.300Z,7.77
2017-08-09T05:34:14.806Z,6.10
2017-08-09T05:36:43.273Z,6.50
2017-08-09T05:39:11.713Z,6.03
2017-08-09T05:41:40.985Z,4.70
2017-08-09T05:44:11.465Z,6.00
2017-08-09T05:46:41.141Z,6.30
2017-08-09T05:49:10.715Z,5.13
2017-08-09T05:51:39.942Z,9.50
2017-08-09T05:54:08.818Z,5.90
2017-08-09T05:56:37.651Z,5.77
2017-08-09T05:59:07.296Z,5.60
2017-08-09T06:01:35.774Z,4.10
2017-08-09T06:04:04.228Z,4.70
2017-08-09T06:06:33.139Z,4.27
2017-08-09T06:09:01.595Z,3.90
2017-08-09T06:11:30.817Z,4.87
2017-08-09T06:14:00.099Z,4.20
2017-08-09T06:16:28.570Z,4.30
2017-08-09T06:18:58.162Z,4.70
2017-08-09T06:21:28.008Z,5.50
2017-08-09T06:23:57.580Z,4.93
2017-08-09T06:26:26.637Z,4.73
2017-08-09T06:28:55.280Z,4.57
2017-08-09T06:31:23.732Z,5.00
2017-08-09T06:33:52.383Z,5.30
2017-08-09T06:36:21.226Z,4.80
2017-08-09T06:38:49.690Z,3.97
2017-08-09T06:41:18.150Z,4.90
2017-08-09T06:43:47.052Z,7.47
2017-08-09T06:46:15.739Z,4.87
2017-08-09T06:48:44.736Z,4.50
2017-08-09T06:51:13.258Z,4.53
2017-08-09T06:53:42.184Z,4.77
2017-08-09T06:56:11.791Z,3.90
2017-08-09T06:58:41.785Z,4.47
2017-08-09T07:01:11.295Z,3.30
2017-08-09T07:03:39.793Z,3.93
2017-08-09T07:06:08.246Z,3.17
2017-08-09T07:08:37.078Z,3.80
2017-08-09T07:11:06.002Z,3.97
2017-08-09T07:13:35.282Z,3.13
2017-08-09T07:16:03.754Z,4.80
2017-08-09T07:18:32.702Z,3.77
2017-08-09T07:21:01.619Z,3.87
2017-08-09T07:23:30.083Z,3.87
2017-08-09T07:26:00.104Z,4.80
2017-08-09T07:28:29.576Z,4.97
2017-08-09T07:30:58.438Z,3.60
2017-08-09T07:33:26.969Z,4.37
2017-08-09T07:35:55.924Z,5.13
2017-08-09T07:38:25.554Z,4.83
2017-08-09T07:40:54.403Z,3.20
2017-08-09T07:43:22.931Z,3.10
2017-08-09T07:45:52.578Z,7.10
2017-08-09T07:48:22.544Z,4.50
2017-08-09T07:50:52.026Z,2.83
2017-08-09T07:53:21.288Z,6.07
2017-08-09T07:55:51.245Z,5.20
2017-08-09T07:58:20.115Z,4.33
2017-08-09T08:00:48.633Z,5.03
2017-08-09T08:03:18.113Z,6.03
2017-08-09T08:05:47.909Z,4.60
2017-08-09T08:08:17.408Z,3.80
2017-08-09T08:10:46.299Z,4.13
2017-08-09T08:13:15.159Z,3.63
2017-08-09T08:15:44.084Z,4.83
2017-08-09T08:18:13.319Z,4.40
2017-08-09T08:20:42.207Z,3.80
2017-08-09T08:23:12.040Z,14.47
2017-08-09T08:25:41.288Z,5.47
2017-08-09T08:28:10.140Z,4.20
2017-08-09T08:30:39.183Z,5.60
2017-08-09T08:33:08.464Z,4.33
2017-08-09T08:35:38.019Z,7.33
2017-08-09T08:38:07.989Z,3.00
2017-08-09T08:40:37.782Z,4.60
2017-08-09T08:43:07.762Z,4.80
2017-08-09T08:45:36.783Z,8.10
2017-08-09T08:48:07.190Z,4.93
2017-08-09T08:50:36.669Z,6.33
2017-08-09T08:53:06.954Z,4.90
2017-08-09T08:55:36.601Z,8.63
2017-08-09T08:58:05.072Z,5.50
2017-08-09T09:00:34.314Z,4.90
2017-08-09T09:03:04.186Z,3.67
2017-08-09T09:05:33.661Z,5.83
2017-08-09T09:08:03.333Z,7.27
2017-08-09T09:10:31.801Z,6.50
2017-08-09T09:13:00.756Z,4.67
2017-08-09T09:15:30.362Z,7.40
2017-08-09T09:18:00.000Z,4.90
2017-08-09T09:20:30.122Z,4.90
2017-08-09T09:22:59.602Z,3.70
2017-08-09T09:25:29.402Z,6.53
2017-08-09T09:27:58.351Z,3.80
2017-08-09T09:30:27.968Z,6.20
2017-08-09T09:32:57.959Z,4.53
2017-08-09T09:35:27.389Z,5.80
2017-08-09T09:37:58.412Z,6.50
2017-08-09T09:40:27.873Z,6.30
2017-08-09T09:42:56.736Z,2.70
2017-08-09T09:45:26.470Z,3.13
2017-08-09T09:47:55.512Z,5.63
2017-08-09T09:50:24.578Z,5.00
2017-08-09T09:52:53.465Z,3.13
2017-08-09T09:55:22.324Z,3.60
2017-08-09T09:57:52.060Z,6.03
2017-08-09T10:00:20.915Z,6.27
2017-08-09T10:02:50.392Z,3.20
2017-08-09T10:05:20.064Z,3.57
2017-08-09T10:07:48.963Z,5.33
2017-08-09T10:10:18.473Z,5.53
2017-08-09T10:12:46.930Z,4.10
2017-08-09T10:15:15.776Z,5.27
2017-08-09T10:17:44.685Z,5.33
2017-08-09T10:20:13.895Z,3.53
2017-08-09T10:22:43.123Z,2.60
2017-08-09T10:25:12.362Z,3.43
2017-08-09T10:27:42.395Z,5.00
2017-08-09T10:30:12.007Z,4.43
2017-08-09T10:32:40.470Z,3.37
2017-08-09T10:35:08.956Z,7.10
2017-08-09T10:37:38.381Z,3.40
2017-08-09T10:40:06.926Z,5.03
2017-08-09T10:42:35.778Z,3.90
2017-08-09T10:45:05.051Z,4.10
2017-08-09T10:47:33.905Z,4.00
2017-08-09T10:50:03.502Z,4.27
2017-08-09T10:52:32.736Z,4.13
2017-08-09T10:55:02.216Z,3.43
2017-08-09T10:57:31.808Z,6.93
2017-08-09T11:00:00.358Z,5.03
2017-08-09T11:02:28.812Z,4.07
2017-08-09T11:04:58.448Z,4.03
2017-08-09T11:07:29.486Z,3.40
2017-08-09T11:09:59.136Z,4.23
2017-08-09T11:12:27.640Z,5.50
2017-08-09T11:14:57.151Z,4.20
2017-08-09T11:17:25.813Z,4.90
2017-08-09T11:19:55.841Z,4.73
2017-08-09T11:22:24.793Z,3.37
2017-08-09T11:24:53.261Z,5.60
2017-08-09T11:27:22.171Z,3.40
2017-08-09T11:29:52.127Z,4.60
2017-08-09T11:32:20.797Z,4.43
2017-08-09T11:34:49.450Z,5.57
2017-08-09T11:37:19.281Z,4.50
2017-08-09T11:39:48.543Z,4.43
2017-08-09T11:42:18.342Z,4.47
2017-08-09T11:44:47.272Z,3.20
2017-08-09T11:47:15.734Z,3.63
2017-08-09T11:49:46.372Z,4.70
2017-08-09T11:52:14.861Z,5.37
2017-08-09T11:54:43.727Z,6.57
2017-08-09T11:57:13.007Z,4.20
2017-08-09T11:59:42.524Z,3.67
2017-08-09T12:02:11.465Z,5.80
2017-08-09T12:04:40.926Z,4.90
2017-08-09T12:07:09.911Z,4.97
2017-08-09T12:09:38.427Z,5.77
2017-08-09T12:12:06.893Z,5.43
2017-08-09T12:14:36.922Z,4.23
2017-08-09T12:17:06.889Z,4.63
2017-08-09T12:19:35.374Z,4.00
2017-08-09T12:22:05.203Z,5.60
2017-08-09T12:24:34.068Z,3.77
2017-08-09T12:27:02.534Z,4.80
2017-08-09T12:29:31.770Z,4.47
2017-08-09T12:32:00.661Z,5.80
2017-08-09T12:34:30.296Z,3.70
2017-08-09T12:37:00.288Z,3.57
2017-08-09T12:39:29.803Z,4.00
2017-08-09T12:41:58.334Z,5.90
2017-08-09T12:44:27.240Z,4.50
2017-08-09T12:46:55.784Z,3.57
2017-08-09T12:49:25.764Z,3.03
2017-08-09T12:51:55.280Z,4.17
2017-08-09T12:54:24.956Z,3.70
2017-08-09T12:56:54.917Z,3.80
2017-08-09T12:59:24.953Z,3.90
2017-08-09T13:01:54.361Z,7.27
2017-08-09T13:04:23.978Z,4.40
2017-08-09T13:06:53.044Z,4.90
2017-08-09T13:09:22.665Z,4.23
2017-08-09T13:11:52.156Z,4.90
2017-08-09T13:14:21.673Z,4.57
2017-08-09T13:16:50.590Z,5.90
2017-08-09T13:19:20.190Z,4.03
2017-08-09T13:21:50.001Z,6.10
2017-08-09T13:24:18.654Z,3.50
2017-08-09T13:26:47.891Z,4.13
2017-08-09T13:29:17.555Z,3.43
2017-08-09T13:31:46.441Z,5.20
2017-08-09T13:34:16.257Z,5.67
2017-08-09T13:36:44.564Z,5.10
2017-08-09T13:39:13.826Z,5.57
2017-08-09T13:41:43.718Z,7.83
2017-08-09T13:44:14.225Z,4.40
2017-08-09T13:46:43.458Z,4.93
2017-08-09T13:49:13.043Z,4.90
2017-08-09T13:51:42.167Z,5.70
2017-08-09T13:54:11.252Z,3.37
2017-08-09T13:56:40.357Z,4.00
2017-08-09T13:59:10.410Z,4.37
2017-08-09T14:01:39.270Z,5.07
2017-08-09T14:04:08.900Z,4.37
2017-08-09T14:06:37.390Z,7.40
2017-08-09T14:09:06.889Z,5.60
2017-08-09T14:11:36.009Z,9.43
2017-08-09T14:14:04.491Z,9.20
2017-08-09T14:16:33.022Z,7.87
2017-08-09T14:19:02.253Z,4.50
2017-08-09T14:21:31.497Z,5.50
2017-08-09T14:24:00.003Z,6.53
2017-08-09T14:26:28.857Z,7.53
2017-08-09T14:28:58.465Z,4.30
2017-08-09T14:31:27.824Z,6.80
2017-08-09T14:33:57.485Z,4.43
2017-08-09T14:36:27.011Z,5.23
2017-08-09T14:38:55.550Z,4.57
2017-08-09T14:41:24.437Z,4.23
2017-08-09T14:43:53.669Z,7.03
2017-08-09T14:46:23.209Z,5.43
2017-08-09T14:48:51.724Z,4.23
2017-08-09T14:51:21.180Z,7.10
2017-08-09T14:53:50.293Z,5.13
2017-08-09T14:56:19.155Z,4.40
2017-08-09T14:58:48.039Z,3.97
2017-08-09T15:01:17.360Z,4.53
2017-08-09T15:03:46.962Z,3.90
2017-08-09T15:06:15.904Z,5.13
2017-08-09T15:08:44.758Z,3.50
2017-08-09T15:11:14.200Z,4.70
2017-08-09T15:13:44.320Z,4.57
2017-08-09T15:16:13.787Z,4.73
2017-08-09T15:18:42.702Z,5.37
2017-08-09T15:21:11.597Z,4.40
2017-08-09T15:23:40.928Z,7.30
2017-08-09T15:26:09.864Z,6.33
2017-08-09T15:28:38.726Z,4.87
2017-08-09T15:31:08.724Z,6.40
2017-08-09T15:33:38.335Z,5.60
2017-08-09T15:36:06.704Z,3.27
2017-08-09T15:38:35.627Z,5.07
2017-08-09T15:41:04.770Z,7.40
2017-08-09T15:43:33.300Z,6.73
2017-08-09T15:46:01.761Z,4.60
2017-08-09T15:48:30.607Z,4.03
2017-08-09T15:50:59.911Z,3.93
2017-08-09T15:53:29.490Z,3.90
2017-08-09T15:55:58.772Z,4.77
2017-08-09T15:58:27.706Z,4.37
2017-08-09T16:00:57.385Z,5.60
2017-08-09T16:03:26.866Z,7.00
2017-08-09T16:05:55.608Z,3.23
2017-08-09T16:08:24.051Z,3.40
2017-08-09T16:10:52.534Z,3.87
2017-08-09T16:13:22.154Z,3.60
2017-08-09T16:15:52.905Z,5.10
2017-08-09T16:18:21.730Z,4.17
2017-08-09T16:20:50.931Z,5.80
2017-08-09T16:23:19.821Z,5.97
2017-08-09T16:25:48.696Z,4.47
2017-08-09T16:28:17.564Z,5.57
2017-08-09T16:30:46.464Z,6.47
2017-08-09T16:33:16.085Z,8.50
2017-08-09T16:35:45.179Z,4.93
2017-08-09T16:38:14.454Z,6.00
2017-08-09T16:40:44.073Z,4.77
2017-08-09T16:43:12.955Z,4.40
2017-08-09T16:45:41.798Z,5.40
2017-08-09T16:48:11.123Z,6.10
2017-08-09T16:50:39.784Z,5.10
2017-08-09T16:53:09.127Z,5.80
2017-08-09T16:55:37.994Z,4.33
2017-08-09T16:58:07.432Z,6.30
2017-08-09T17:00:35.953Z,4.90
2017-08-09T17:03:05.998Z,3.43
2017-08-09T17:05:34.487Z,2.63
2017-08-09T17:08:04.025Z,5.60
2017-08-09T17:10:33.228Z,3.93
2017-08-09T17:13:02.076Z,5.10
2017-08-09T17:15:31.374Z,3.70
2017-08-09T17:18:00.238Z,4.70
2017-08-09T17:20:29.089Z,4.37
2017-08-09T17:22:58.053Z,4.97
2017-08-09T17:25:46.999Z,6.67
2017-08-09T17:28:16.139Z,4.97
2017-08-09T17:30:44.622Z,4.40
2017-08-09T17:33:13.825Z,4.47
2017-08-09T17:35:42.298Z,4.03
2017-08-09T17:38:11.529Z,4.50
2017-08-09T17:40:40.063Z,4.90
2017-08-09T17:43:09.576Z,4.20
2017-08-09T17:45:38.016Z,5.23
2017-08-09T17:48:08.918Z,5.47
2017-08-09T17:50:38.548Z,3.40
2017-08-09T17:53:07.125Z,4.73
2017-08-09T17:55:38.400Z,3.43
2017-08-09T17:58:07.991Z,5.20
2017-08-09T18:00:38.640Z,4.10
2017-08-09T18:03:07.098Z,4.77
2017-08-09T18:05:35.931Z,3.50
2017-08-09T18:08:05.031Z,4.00
2017-08-09T18:10:33.489Z,5.10
2017-08-09T18:13:03.136Z,4.13
2017-08-09T18:15:32.752Z,4.30
2017-08-09T18:18:01.222Z,4.43
2017-08-09T18:20:30.429Z,4.17
2017-08-09T18:22:59.309Z,3.60
2017-08-09T18:25:28.230Z,3.70
2017-08-09T18:27:57.345Z,4.60
2017-08-09T18:30:26.237Z,4.10
2017-08-09T18:32:55.486Z,4.30
2017-08-09T18:35:24.717Z,5.07
2017-08-09T18:37:53.227Z,5.20
2017-08-09T18:40:22.651Z,6.13
2017-08-09T18:42:52.093Z,5.37
2017-08-09T18:45:21.398Z,5.50
2017-08-09T18:47:51.535Z,5.30
2017-08-09T18:50:20.033Z,5.20
2017-08-09T18:52:48.511Z,5.60
2017-08-09T18:55:16.998Z,5.43
2017-08-09T18:57:46.217Z,3.40
2017-08-09T19:00:15.457Z,6.33
2017-08-09T19:02:44.525Z,4.17
2017-08-09T19:05:14.448Z,6.43
2017-08-09T19:07:43.921Z,4.43
2017-08-09T19:10:13.159Z,5.57
2017-08-09T19:12:42.679Z,4.43
2017-08-09T19:15:12.376Z,4.57
2017-08-09T19:17:41.826Z,4.40
2017-08-09T19:20:11.796Z,5.43
2017-08-09T19:22:40.445Z,4.50
2017-08-09T19:25:10.103Z,4.30
2017-08-09T19:27:38.989Z,5.43
2017-08-09T19:30:08.675Z,6.90
2017-08-09T19:32:37.885Z,6.33
2017-08-09T19:35:07.528Z,5.47
2017-08-09T19:37:36.775Z,6.50
2017-08-09T19:40:05.690Z,6.20
2017-08-09T19:42:34.614Z,4.83
2017-08-09T19:45:03.509Z,4.30
2017-08-09T19:47:32.388Z,6.23
2017-08-09T19:50:01.408Z,4.80
2017-08-09T19:52:31.021Z,9.80
2017-08-09T19:54:59.476Z,3.63
2017-08-09T19:57:29.526Z,6.50
2017-08-09T19:59:58.737Z,6.37
2017-08-09T20:02:27.645Z,7.67
2017-08-09T20:04:57.102Z,3.80
2017-08-09T20:07:25.999Z,6.27
2017-08-09T20:09:55.254Z,6.10
2017-08-09T20:12:25.252Z,4.77
2017-08-09T20:14:54.141Z,5.00
2017-08-09T20:17:23.391Z,3.80
2017-08-09T20:19:53.022Z,6.27
2017-08-09T20:22:22.490Z,5.77
2017-08-09T20:24:51.744Z,4.17
2017-08-09T20:27:20.588Z,5.33
2017-08-09T20:29:49.230Z,4.37
2017-08-09T20:32:18.928Z,5.30
2017-08-09T20:34:48.389Z,4.30
2017-08-09T20:37:17.995Z,6.50
2017-08-09T20:39:46.612Z,6.50
2017-08-09T20:42:15.456Z,6.90
2017-08-09T20:44:43.955Z,6.33
2017-08-09T20:47:13.545Z,7.40
2017-08-09T20:49:42.042Z,6.73
2017-08-09T20:52:11.324Z,6.03
2017-08-09T20:54:40.225Z,5.53
2017-08-09T20:57:09.150Z,7.03
2017-08-09T20:59:37.653Z,5.57
2017-08-09T21:02:06.887Z,7.83
2017-08-09T21:04:36.651Z,4.57
2017-08-09T21:07:06.247Z,6.63
2017-08-09T21:09:35.139Z,5.20
2017-08-09T21:12:04.711Z,6.47
2017-08-09T21:14:34.191Z,6.37
2017-08-09T21:17:03.060Z,6.30
2017-08-09T21:19:31.949Z,5.40
2017-08-09T21:22:00.449Z,5.03
2017-08-09T21:24:29.301Z,5.43
2017-08-09T21:26:57.780Z,6.00
2017-08-09T21:29:26.309Z,4.80
2017-08-09T21:31:56.254Z,5.23
2017-08-09T21:34:25.485Z,6.73
2017-08-09T21:36:55.435Z,4.93
2017-08-09T21:39:24.690Z,4.67
2017-08-09T21:41:56.115Z,5.40
2017-08-09T21:44:25.001Z,5.07
2017-08-09T21:46:53.544Z,6.77
2017-08-09T21:49:22.222Z,5.60
2017-08-09T21:51:51.874Z,5.73
2017-08-09T21:54:20.753Z,7.20
2017-08-09T21:56:49.299Z,6.90
2017-08-09T21:59:17.801Z,6.23
2017-08-09T22:01:46.918Z,7.17
2017-08-09T22:04:17.344Z,8.20
2017-08-09T22:06:46.949Z,7.17
2017-08-09T22:09:16.647Z,7.20
2017-08-09T22:11:46.458Z,6.90
2017-08-09T22:14:14.912Z,9.43
2017-08-09T22:16:44.421Z,9.17
2017-08-09T22:19:12.876Z,8.23
2017-08-09T22:21:41.734Z,8.60
2017-08-09T22:24:10.239Z,8.63
2017-08-09T22:26:38.752Z,10.00
2017-08-09T22:29:08.054Z,10.70
2017-08-09T22:31:37.380Z,12.90
2017-08-09T22:34:07.448Z,13.53
2017-08-09T22:36:37.169Z,14.20
2017-08-09T22:39:06.696Z,14.97
2017-08-09T22:41:36.455Z,14.83
2017-08-09T22:44:05.408Z,16.70
2017-08-09T22:46:34.994Z,16.23
2017-08-09T22:49:03.644Z,17.97
2017-08-09T22:51:33.272Z,17.77
2017-08-09T22:54:02.515Z,18.20
2017-08-09T22:56:32.497Z,20.37
2017-08-09T22:59:02.141Z,18.50
2017-08-09T23:01:31.001Z,17.70
2017-08-09T23:03:59.552Z,17.37
2017-08-09T23:06:28.142Z,17.33
2017-08-09T23:08:57.642Z,18.37
2017-08-09T23:11:26.961Z,17.90
2017-08-09T23:13:56.781Z,24.83
2017-08-09T23:16:25.633Z,25.70
2017-08-09T23:18:54.099Z,29.50
2017-08-09T23:21:23.376Z,30.20
2017-08-09T23:23:51.851Z,17.27
2017-08-09T23:26:20.303Z,17.77
2017-08-09T23:28:49.201Z,19.33
2017-08-09T23:31:18.422Z,12.97
2017-08-09T23:33:47.134Z,18.47
2017-08-09T23:36:16.350Z,17.40
2017-08-09T23:38:45.416Z,15.60
2017-08-09T23:41:14.274Z,12.70
2017-08-09T23:43:42.763Z,13.33
2017-08-09T23:46:11.667Z,14.27
2017-08-09T23:48:40.890Z,13.23
2017-08-09T23:51:09.394Z,12.40
2017-08-09T23:53:37.888Z,14.10
2017-08-09T23:56:07.161Z,14.03
2017-08-09T23:58:35.776Z,16.53
